Flight Track Log - Related Links

Times and Time Zones

All times are in EDT time to prevent confusion due to time zone crossing. See the KAP927 flight status page for this flight to view local times or setup timezone preferences in your user account.

Time Position Orientation Groundspeed Altitude Reporting Facility
EDT Latitude Longitude Course Direction KTS MPH feet Rate Location/Type
Thu 07:13:00 AM 44.6729 -75.4565 144° Southeast  Level FlightAware
Thu 07:17:44 AM 44.5856 -75.3317 144° Southeast 149 171 3,200  Level Boston Center
Thu 07:18:44 AM 44.5572 -75.3011 142° Southeast 138 159 3,800 650 Climbing Boston Center
Thu 07:19:44 AM 44.5264 -75.2733 147° Southeast 133 153 4,500 600 Climbing Boston Center
Thu 07:20:44 AM 44.4958 -75.2458 147° Southeast 133 153 5,000 550 Climbing Boston Center
Thu 07:21:44 AM 44.4653 -75.2211 150° Southeast 128 147 5,600 550 Climbing Boston Center
Thu 07:22:44 AM 44.4306 -75.1903 148° Southeast 134 154 6,100 550 Climbing Boston Center
Thu 07:23:44 AM 44.3997 -75.1686 153° Southeast 139 160 6,700 450 Climbing Boston Center
Thu 07:24:44 AM 44.3631 -75.1350 147° Southeast 139 160 7,000 150 Climbing Boston Center
Thu 07:25:44 AM 44.3242 -75.1069 153° Southeast 149 171 7,000  Level Boston Center
Thu 07:26:44 AM 44.2792 -75.0672 148° Southeast 161 185 7,000  Level Boston Center
Thu 07:27:44 AM 44.2425 -75.0367 149° Southeast 161 185 7,000  Level Boston Center
Thu 07:28:44 AM 44.2036 -75.0031 148° Southeast 161 185 7,000  Level Boston Center
Thu 07:29:44 AM 44.1669 -74.9697 147° Southeast 161 185 7,000  Level Boston Center
Thu 07:30:44 AM 44.1281 -74.9361 148° Southeast 161 185 7,000  Level Boston Center
Thu 07:31:56 AM 44.0889 -74.9058 151° Southeast 161 185 7,000  Level Boston Center
Thu 07:32:56 AM 44.0419 -74.8633 147° Southeast 161 185 7,000  Level Boston Center
Thu 07:33:56 AM 44.0031 -74.8328 151° Southeast 161 185 7,000  Level Boston Center
Thu 07:34:56 AM 43.9642 -74.7997 149° Southeast 161 185 7,000  Level Boston Center
Thu 07:36:08 AM 43.9150 -74.7603 150° Southeast 161 185 7,000  Level Boston Center
Thu 07:37:08 AM 43.8761 -74.7269 148° Southeast 166 191 7,000  Level Boston Center
Thu 07:38:08 AM 43.8369 -74.6939 149° Southeast 166 191 7,000  Level Boston Center
Thu 07:39:08 AM 43.8003 -74.6608 147° Southeast 166 191 7,000  Level Boston Center
Thu 07:40:08 AM 43.7611 -74.6306 151° Southeast 166 191 7,000  Level Boston Center
Thu 07:41:08 AM 43.7222 -74.5975 148° Southeast 166 191 7,000 -50 Level Boston Center
Thu 07:42:08 AM 43.6831 -74.5647 149° Southeast 166 191 6,900 -50 Descending Boston Center
Thu 07:43:08 AM 43.6422 -74.5317 150° Southeast 166 191 6,900  Level Boston Center
Thu 07:44:08 AM 43.6053 -74.5017 150° Southeast 166 191 6,900  Level Boston Center
Thu 07:45:08 AM 43.5642 -74.4686 150° Southeast 166 191 6,900  Level Boston Center
Thu 07:46:08 AM 43.5250 -74.4358 149° Southeast 166 191 6,900  Level Boston Center
Thu 07:47:08 AM 43.4881 -74.4033 147° Southeast 166 191 6,900  Level Boston Center
Thu 07:48:08 AM 43.4511 -74.3733 149° Southeast 166 191 6,900 45 Level Boston Center
Thu 07:49:21 AM 43.4017 -74.3347 150° Southeast 161 185 7,000  Climbing Boston Center
Thu 07:50:08 AM 43.3731 -74.3081 146° Southeast 166 191 6,900 -56 Descending Boston Center
Thu 07:51:08 AM 43.3358 -74.2783 150° Southeast 166 191 6,900  Level Boston Center
Thu 07:52:08 AM 43.2969 -74.2458 149° Southeast 166 191 6,900 -50 Level Boston Center
Thu 07:53:08 AM 43.2578 -74.2161 151° Southeast 166 191 6,800 -300 Descending Boston Center
Thu 07:54:08 AM 43.2167 -74.1836 150° Southeast 166 191 6,300 -500 Descending Boston Center
Thu 07:55:08 AM 43.1714 -74.1453 148° Southeast 180 207 5,800 -500 Descending Boston Center
Thu 07:56:08 AM 43.1300 -74.1128 150° Southeast 180 207 5,300 -400 Descending Boston Center
Thu 07:57:08 AM 43.0889 -74.0778 148° Southeast 180 207 5,000 -125 Descending Boston Center
Thu 07:58:32 AM 43.0436 -74.0425 150° Southeast 175 201 5,000 -86 Level Boston Center
Thu 07:59:27 AM 43.0003 -74.0044 147° Southeast 159 183 4,800 -414 Descending Boston Center
Thu 08:00:28 AM 42.9569 -73.9664 147° Southeast 176 203 4,200 -563 Descending Boston Center
Thu 08:01:35 AM 42.9158 -73.9228 142° Southeast 172 198 3,600 -567 Descending Boston Center
Thu 08:02:35 AM 42.8789 -73.8794 139° Southeast 173 199 3,000 -645 Descending Boston Center
Thu 08:03:36 AM 42.8397 -73.8417 145° Southeast 171 197 2,300 -694 Descending Boston Center
Thu 08:04:36 AM 42.8028 -73.8125 150° Southeast 141 162 1,600 -793 Descending Boston Center
Thu 08:05:37 AM 42.7736 -73.8092 175° South 99 114 700 -885 Descending Boston Center
Thu 08:07:00 AM 42.7491 -73.8020 160° South  Level Estimated
Thu 08:14:00 AM 42.7491 -73.8020 160° South  Level Estimated
Thu 08:15:00 AM 42.7491 -73.8020 160° South  Level Estimated
Thu 08:16:00 AM 42.7491 -73.8020 160° South  Level Estimated

Login

Don't have an account? Register now (free) for customized features, flight alerts, and more!